sensor_id;sensor_type;location;lat;lon;timestamp;P1;durP1;ratioP1;P2;durP2;ratioP2
6529;SDS011;3298;42.688;23.366;2022-12-05T00:02:06;7.37;;;6.40;;
6529;SDS011;3298;42.688;23.366;2022-12-05T00:04:33;8.70;;;7.03;;
6529;SDS011;3298;42.688;23.366;2022-12-05T00:07:00;9.10;;;6.87;;
6529;SDS011;3298;42.688;23.366;2022-12-05T00:09:28;15.43;;;7.57;;
6529;SDS011;3298;42.688;23.366;2022-12-05T00:11:55;9.17;;;7.07;;
6529;SDS011;3298;42.688;23.366;2022-12-05T00:14:21;8.50;;;7.20;;
6529;SDS011;3298;42.688;23.366;2022-12-05T00:16:48;8.67;;;6.97;;
6529;SDS011;3298;42.688;23.366;2022-12-05T00:19:16;13.57;;;7.90;;
6529;SDS011;3298;42.688;23.366;2022-12-05T00:21:43;7.07;;;6.27;;
6529;SDS011;3298;42.688;23.366;2022-12-05T00:24:11;9.37;;;7.80;;
6529;SDS011;3298;42.688;23.366;2022-12-05T00:26:39;10.40;;;7.07;;
6529;SDS011;3298;42.688;23.366;2022-12-05T00:29:07;11.73;;;7.47;;
6529;SDS011;3298;42.688;23.366;2022-12-05T00:31:34;11.37;;;7.63;;
6529;SDS011;3298;42.688;23.366;2022-12-05T00:34:01;11.63;;;7.57;;
6529;SDS011;3298;42.688;23.366;2022-12-05T00:36:31;9.17;;;6.70;;
6529;SDS011;3298;42.688;23.366;2022-12-05T00:38:59;11.77;;;6.70;;
6529;SDS011;3298;42.688;23.366;2022-12-05T00:41:27;13.43;;;6.80;;
6529;SDS011;3298;42.688;23.366;2022-12-05T00:43:55;9.67;;;6.57;;
6529;SDS011;3298;42.688;23.366;2022-12-05T00:46:24;10.03;;;7.53;;
6529;SDS011;3298;42.688;23.366;2022-12-05T00:48:53;10.57;;;6.90;;
6529;SDS011;3298;42.688;23.366;2022-12-05T00:51:22;10.13;;;7.10;;
6529;SDS011;3298;42.688;23.366;2022-12-05T00:53:54;9.00;;;7.43;;
6529;SDS011;3298;42.688;23.366;2022-12-05T00:56:23;11.40;;;7.30;;
6529;SDS011;3298;42.688;23.366;2022-12-05T00:58:52;7.20;;;5.87;;
6529;SDS011;3298;42.688;23.366;2022-12-05T01:01:21;11.37;;;7.23;;
6529;SDS011;3298;42.688;23.366;2022-12-05T01:03:50;10.27;;;6.97;;
6529;SDS011;3298;42.688;23.366;2022-12-05T01:06:21;9.10;;;6.53;;
6529;SDS011;3298;42.688;23.366;2022-12-05T01:08:49;8.57;;;7.13;;
6529;SDS011;3298;42.688;23.366;2022-12-05T01:11:19;10.10;;;7.17;;
6529;SDS011;3298;42.688;23.366;2022-12-05T01:13:47;9.67;;;6.43;;
6529;SDS011;3298;42.688;23.366;2022-12-05T01:16:14;9.77;;;7.07;;
6529;SDS011;3298;42.688;23.366;2022-12-05T01:18:41;10.33;;;7.50;;
6529;SDS011;3298;42.688;23.366;2022-12-05T01:21:09;9.10;;;6.97;;
6529;SDS011;3298;42.688;23.366;2022-12-05T01:23:36;10.43;;;7.57;;
6529;SDS011;3298;42.688;23.366;2022-12-05T01:26:04;10.50;;;6.47;;
6529;SDS011;3298;42.688;23.366;2022-12-05T01:28:34;9.00;;;6.33;;
6529;SDS011;3298;42.688;23.366;2022-12-05T01:31:03;6.80;;;6.10;;
6529;SDS011;3298;42.688;23.366;2022-12-05T01:33:32;6.83;;;6.20;;
6529;SDS011;3298;42.688;23.366;2022-12-05T01:35:59;5.97;;;5.37;;
6529;SDS011;3298;42.688;23.366;2022-12-05T01:38:26;9.27;;;6.63;;
6529;SDS011;3298;42.688;23.366;2022-12-05T01:41:00;8.07;;;6.60;;
6529;SDS011;3298;42.688;23.366;2022-12-05T01:43:28;8.47;;;6.90;;
6529;SDS011;3298;42.688;23.366;2022-12-05T01:45:56;10.53;;;7.50;;
6529;SDS011;3298;42.688;23.366;2022-12-05T01:48:24;8.60;;;6.37;;
6529;SDS011;3298;42.688;23.366;2022-12-05T01:50:53;7.63;;;6.70;;
6529;SDS011;3298;42.688;23.366;2022-12-05T01:53:20;8.97;;;7.23;;
6529;SDS011;3298;42.688;23.366;2022-12-05T01:55:49;9.60;;;7.40;;
6529;SDS011;3298;42.688;23.366;2022-12-05T01:58:16;10.87;;;7.20;;
6529;SDS011;3298;42.688;23.366;2022-12-05T02:00:44;11.07;;;7.47;;
6529;SDS011;3298;42.688;23.366;2022-12-05T02:03:14;11.37;;;6.97;;
6529;SDS011;3298;42.688;23.366;2022-12-05T02:05:45;14.17;;;10.13;;
6529;SDS011;3298;42.688;23.366;2022-12-05T02:08:14;13.37;;;7.93;;
6529;SDS011;3298;42.688;23.366;2022-12-05T02:10:42;9.83;;;6.83;;
6529;SDS011;3298;42.688;23.366;2022-12-05T02:13:16;8.87;;;6.33;;
6529;SDS011;3298;42.688;23.366;2022-12-05T02:15:56;7.47;;;6.67;;
6529;SDS011;3298;42.688;23.366;2022-12-05T02:18:30;14.33;;;7.53;;
6529;SDS011;3298;42.688;23.366;2022-12-05T02:21:12;8.83;;;7.23;;
6529;SDS011;3298;42.688;23.366;2022-12-05T02:24:02;9.40;;;6.60;;
6529;SDS011;3298;42.688;23.366;2022-12-05T02:26:49;10.47;;;8.23;;
6529;SDS011;3298;42.688;23.366;2022-12-05T02:32:25;10.40;;;6.70;;
6529;SDS011;3298;42.688;23.366;2022-12-05T02:35:11;9.17;;;7.00;;
6529;SDS011;3298;42.688;23.366;2022-12-05T02:37:49;10.10;;;7.80;;
6529;SDS011;3298;42.688;23.366;2022-12-05T02:40:23;9.70;;;7.47;;
6529;SDS011;3298;42.688;23.366;2022-12-05T02:42:54;11.73;;;6.90;;
6529;SDS011;3298;42.688;23.366;2022-12-05T02:45:28;10.37;;;7.20;;
6529;SDS011;3298;42.688;23.366;2022-12-05T02:47:59;10.33;;;7.20;;
6529;SDS011;3298;42.688;23.366;2022-12-05T02:50:28;7.33;;;6.47;;
6529;SDS011;3298;42.688;23.366;2022-12-05T02:52:58;8.67;;;6.73;;
6529;SDS011;3298;42.688;23.366;2022-12-05T02:55:28;7.47;;;6.37;;
6529;SDS011;3298;42.688;23.366;2022-12-05T02:57:58;6.23;;;5.60;;
6529;SDS011;3298;42.688;23.366;2022-12-05T03:00:33;6.87;;;5.93;;
6529;SDS011;3298;42.688;23.366;2022-12-05T03:03:00;10.43;;;7.10;;
6529;SDS011;3298;42.688;23.366;2022-12-05T03:05:31;8.80;;;6.40;;
6529;SDS011;3298;42.688;23.366;2022-12-05T03:08:07;7.47;;;5.53;;
6529;SDS011;3298;42.688;23.366;2022-12-05T03:10:39;6.77;;;5.37;;
6529;SDS011;3298;42.688;23.366;2022-12-05T03:13:09;7.13;;;5.57;;
6529;SDS011;3298;42.688;23.366;2022-12-05T03:15:42;8.33;;;5.63;;
6529;SDS011;3298;42.688;23.366;2022-12-05T03:18:14;6.93;;;5.53;;
6529;SDS011;3298;42.688;23.366;2022-12-05T03:20:44;6.77;;;5.57;;
6529;SDS011;3298;42.688;23.366;2022-12-05T03:23:17;10.07;;;7.17;;
6529;SDS011;3298;42.688;23.366;2022-12-05T03:25:49;9.37;;;6.93;;
6529;SDS011;3298;42.688;23.366;2022-12-05T03:28:23;6.37;;;5.43;;
6529;SDS011;3298;42.688;23.366;2022-12-05T03:30:56;11.13;;;6.63;;
6529;SDS011;3298;42.688;23.366;2022-12-05T03:33:33;8.03;;;6.60;;
6529;SDS011;3298;42.688;23.366;2022-12-05T03:36:07;10.57;;;6.87;;
6529;SDS011;3298;42.688;23.366;2022-12-05T03:38:43;8.17;;;6.63;;
6529;SDS011;3298;42.688;23.366;2022-12-05T03:41:16;9.60;;;6.40;;
6529;SDS011;3298;42.688;23.366;2022-12-05T03:43:51;9.63;;;6.33;;
6529;SDS011;3298;42.688;23.366;2022-12-05T03:46:23;7.33;;;5.97;;
6529;SDS011;3298;42.688;23.366;2022-12-05T03:48:56;13.17;;;7.27;;
6529;SDS011;3298;42.688;23.366;2022-12-05T03:51:35;12.13;;;6.63;;
6529;SDS011;3298;42.688;23.366;2022-12-05T03:54:07;7.63;;;5.93;;
6529;SDS011;3298;42.688;23.366;2022-12-05T03:56:40;8.03;;;6.03;;
6529;SDS011;3298;42.688;23.366;2022-12-05T03:59:12;14.13;;;7.40;;
6529;SDS011;3298;42.688;23.366;2022-12-05T04:01:45;11.10;;;6.77;;
6529;SDS011;3298;42.688;23.366;2022-12-05T04:04:15;10.30;;;7.53;;
6529;SDS011;3298;42.688;23.366;2022-12-05T04:06:47;11.73;;;6.80;;
6529;SDS011;3298;42.688;23.366;2022-12-05T04:09:17;8.87;;;6.47;;
6529;SDS011;3298;42.688;23.366;2022-12-05T04:11:48;8.40;;;6.27;;
6529;SDS011;3298;42.688;23.366;2022-12-05T04:14:21;11.20;;;7.00;;
6529;SDS011;3298;42.688;23.366;2022-12-05T04:16:55;8.03;;;6.77;;
6529;SDS011;3298;42.688;23.366;2022-12-05T04:19:27;10.47;;;7.57;;
6529;SDS011;3298;42.688;23.366;2022-12-05T04:22:19;11.23;;;6.90;;
6529;SDS011;3298;42.688;23.366;2022-12-05T04:24:46;7.70;;;5.87;;
6529;SDS011;3298;42.688;23.366;2022-12-05T04:27:33;14.37;;;7.07;;
6529;SDS011;3298;42.688;23.366;2022-12-05T04:30:05;8.30;;;6.07;;
6529;SDS011;3298;42.688;23.366;2022-12-05T04:32:38;9.60;;;6.57;;
6529;SDS011;3298;42.688;23.366;2022-12-05T04:35:10;7.77;;;6.37;;
6529;SDS011;3298;42.688;23.366;2022-12-05T04:37:43;8.20;;;6.40;;
6529;SDS011;3298;42.688;23.366;2022-12-05T04:40:16;8.03;;;6.10;;
6529;SDS011;3298;42.688;23.366;2022-12-05T04:42:45;12.07;;;6.57;;
6529;SDS011;3298;42.688;23.366;2022-12-05T04:45:14;8.53;;;6.37;;
6529;SDS011;3298;42.688;23.366;2022-12-05T04:47:46;10.30;;;7.43;;
6529;SDS011;3298;42.688;23.366;2022-12-05T04:50:17;9.37;;;6.73;;
6529;SDS011;3298;42.688;23.366;2022-12-05T04:52:46;7.43;;;5.83;;
6529;SDS011;3298;42.688;23.366;2022-12-05T04:55:17;7.10;;;6.13;;
6529;SDS011;3298;42.688;23.366;2022-12-05T04:57:51;10.10;;;6.03;;
6529;SDS011;3298;42.688;23.366;2022-12-05T05:00:23;8.83;;;6.17;;
6529;SDS011;3298;42.688;23.366;2022-12-05T05:02:53;9.50;;;5.87;;
6529;SDS011;3298;42.688;23.366;2022-12-05T05:05:25;10.87;;;7.17;;
6529;SDS011;3298;42.688;23.366;2022-12-05T05:07:54;8.60;;;6.63;;
6529;SDS011;3298;42.688;23.366;2022-12-05T05:10:21;10.33;;;5.87;;
6529;SDS011;3298;42.688;23.366;2022-12-05T05:12:56;10.03;;;6.13;;
6529;SDS011;3298;42.688;23.366;2022-12-05T05:15:23;10.03;;;7.13;;
6529;SDS011;3298;42.688;23.366;2022-12-05T05:17:49;8.87;;;6.73;;
6529;SDS011;3298;42.688;23.366;2022-12-05T05:20:18;12.13;;;7.07;;
6529;SDS011;3298;42.688;23.366;2022-12-05T05:22:51;9.07;;;7.33;;
6529;SDS011;3298;42.688;23.366;2022-12-05T05:25:19;13.67;;;8.27;;
6529;SDS011;3298;42.688;23.366;2022-12-05T05:27:48;12.27;;;7.73;;
6529;SDS011;3298;42.688;23.366;2022-12-05T05:30:16;11.33;;;7.23;;
6529;SDS011;3298;42.688;23.366;2022-12-05T05:32:43;11.17;;;8.17;;
6529;SDS011;3298;42.688;23.366;2022-12-05T05:35:11;9.63;;;7.67;;
6529;SDS011;3298;42.688;23.366;2022-12-05T05:37:38;12.60;;;8.23;;
6529;SDS011;3298;42.688;23.366;2022-12-05T05:40:06;9.93;;;7.23;;
6529;SDS011;3298;42.688;23.366;2022-12-05T05:42:34;8.03;;;7.23;;
6529;SDS011;3298;42.688;23.366;2022-12-05T05:45:01;13.97;;;7.53;;
6529;SDS011;3298;42.688;23.366;2022-12-05T05:47:28;9.20;;;7.93;;
6529;SDS011;3298;42.688;23.366;2022-12-05T05:49:55;13.37;;;7.83;;
6529;SDS011;3298;42.688;23.366;2022-12-05T05:52:23;16.20;;;8.60;;
6529;SDS011;3298;42.688;23.366;2022-12-05T05:54:50;13.63;;;7.23;;
6529;SDS011;3298;42.688;23.366;2022-12-05T05:57:17;9.17;;;7.10;;
6529;SDS011;3298;42.688;23.366;2022-12-05T05:59:44;11.93;;;7.33;;
6529;SDS011;3298;42.688;23.366;2022-12-05T06:02:11;11.60;;;7.60;;
6529;SDS011;3298;42.688;23.366;2022-12-05T06:04:38;9.40;;;7.33;;
6529;SDS011;3298;42.688;23.366;2022-12-05T06:07:05;12.97;;;8.57;;
6529;SDS011;3298;42.688;23.366;2022-12-05T06:09:33;16.40;;;9.70;;
6529;SDS011;3298;42.688;23.366;2022-12-05T06:12:00;15.97;;;9.93;;
6529;SDS011;3298;42.688;23.366;2022-12-05T06:14:26;14.30;;;8.97;;
6529;SDS011;3298;42.688;23.366;2022-12-05T06:16:53;13.90;;;9.10;;
6529;SDS011;3298;42.688;23.366;2022-12-05T06:19:20;20.33;;;9.73;;
6529;SDS011;3298;42.688;23.366;2022-12-05T06:21:47;14.50;;;10.67;;
6529;SDS011;3298;42.688;23.366;2022-12-05T06:24:15;15.27;;;8.70;;
6529;SDS011;3298;42.688;23.366;2022-12-05T06:26:43;11.77;;;8.20;;
6529;SDS011;3298;42.688;23.366;2022-12-05T06:29:10;11.97;;;8.07;;
6529;SDS011;3298;42.688;23.366;2022-12-05T06:31:37;8.63;;;7.00;;
6529;SDS011;3298;42.688;23.366;2022-12-05T06:34:03;10.53;;;7.43;;
6529;SDS011;3298;42.688;23.366;2022-12-05T06:36:30;9.53;;;7.30;;
6529;SDS011;3298;42.688;23.366;2022-12-05T06:38:57;11.03;;;7.50;;
6529;SDS011;3298;42.688;23.366;2022-12-05T06:41:25;12.57;;;7.57;;
6529;SDS011;3298;42.688;23.366;2022-12-05T06:43:54;11.30;;;7.03;;
6529;SDS011;3298;42.688;23.366;2022-12-05T06:46:22;10.77;;;7.23;;
6529;SDS011;3298;42.688;23.366;2022-12-05T06:48:51;13.17;;;7.00;;
6529;SDS011;3298;42.688;23.366;2022-12-05T06:51:18;10.50;;;7.67;;
6529;SDS011;3298;42.688;23.366;2022-12-05T06:53:45;16.60;;;7.30;;
6529;SDS011;3298;42.688;23.366;2022-12-05T06:56:12;9.83;;;7.73;;
6529;SDS011;3298;42.688;23.366;2022-12-05T06:58:40;8.13;;;6.63;;
6529;SDS011;3298;42.688;23.366;2022-12-05T07:01:10;8.20;;;7.07;;
6529;SDS011;3298;42.688;23.366;2022-12-05T07:03:55;9.47;;;7.67;;
6529;SDS011;3298;42.688;23.366;2022-12-05T07:06:22;10.70;;;7.30;;
6529;SDS011;3298;42.688;23.366;2022-12-05T07:08:49;9.10;;;8.03;;
6529;SDS011;3298;42.688;23.366;2022-12-05T07:11:16;13.03;;;7.97;;
6529;SDS011;3298;42.688;23.366;2022-12-05T07:13:42;14.60;;;10.03;;
6529;SDS011;3298;42.688;23.366;2022-12-05T07:16:10;16.40;;;10.47;;
6529;SDS011;3298;42.688;23.366;2022-12-05T07:18:37;18.80;;;10.67;;
6529;SDS011;3298;42.688;23.366;2022-12-05T07:21:05;17.13;;;9.97;;
6529;SDS011;3298;42.688;23.366;2022-12-05T07:23:33;12.40;;;8.47;;
6529;SDS011;3298;42.688;23.366;2022-12-05T07:26:03;11.30;;;9.07;;
6529;SDS011;3298;42.688;23.366;2022-12-05T07:28:30;20.73;;;9.30;;
6529;SDS011;3298;42.688;23.366;2022-12-05T07:31:00;14.50;;;9.67;;
6529;SDS011;3298;42.688;23.366;2022-12-05T07:33:29;14.37;;;8.77;;
6529;SDS011;3298;42.688;23.366;2022-12-05T07:35:59;17.10;;;9.77;;
6529;SDS011;3298;42.688;23.366;2022-12-05T07:38:26;14.73;;;9.03;;
6529;SDS011;3298;42.688;23.366;2022-12-05T07:40:53;12.37;;;8.00;;
6529;SDS011;3298;42.688;23.366;2022-12-05T07:43:20;11.70;;;8.33;;
6529;SDS011;3298;42.688;23.366;2022-12-05T07:45:47;13.07;;;8.67;;
6529;SDS011;3298;42.688;23.366;2022-12-05T07:48:14;9.77;;;7.10;;
6529;SDS011;3298;42.688;23.366;2022-12-05T07:50:42;11.50;;;9.23;;
6529;SDS011;3298;42.688;23.366;2022-12-05T07:53:09;15.40;;;9.63;;
6529;SDS011;3298;42.688;23.366;2022-12-05T07:55:36;18.77;;;9.43;;
6529;SDS011;3298;42.688;23.366;2022-12-05T07:58:03;12.17;;;9.70;;
6529;SDS011;3298;42.688;23.366;2022-12-05T08:00:30;12.30;;;9.37;;
6529;SDS011;3298;42.688;23.366;2022-12-05T08:02:56;17.47;;;9.50;;
6529;SDS011;3298;42.688;23.366;2022-12-05T08:05:23;15.63;;;9.40;;
6529;SDS011;3298;42.688;23.366;2022-12-05T08:07:51;13.77;;;10.60;;
6529;SDS011;3298;42.688;23.366;2022-12-05T08:10:18;21.17;;;12.77;;
6529;SDS011;3298;42.688;23.366;2022-12-05T08:12:45;20.83;;;15.77;;
6529;SDS011;3298;42.688;23.366;2022-12-05T08:15:12;20.70;;;16.90;;
6529;SDS011;3298;42.688;23.366;2022-12-05T08:17:38;16.80;;;14.77;;
6529;SDS011;3298;42.688;23.366;2022-12-05T08:20:06;18.67;;;11.60;;
6529;SDS011;3298;42.688;23.366;2022-12-05T08:22:33;17.43;;;11.57;;
6529;SDS011;3298;42.688;23.366;2022-12-05T08:25:01;15.30;;;10.37;;
6529;SDS011;3298;42.688;23.366;2022-12-05T08:27:28;12.63;;;8.03;;
6529;SDS011;3298;42.688;23.366;2022-12-05T08:29:55;11.80;;;8.93;;
6529;SDS011;3298;42.688;23.366;2022-12-05T08:32:22;12.77;;;9.30;;
6529;SDS011;3298;42.688;23.366;2022-12-05T08:34:49;6.57;;;5.97;;
6529;SDS011;3298;42.688;23.366;2022-12-05T08:37:16;5.97;;;5.30;;
6529;SDS011;3298;42.688;23.366;2022-12-05T08:39:43;6.73;;;5.90;;
6529;SDS011;3298;42.688;23.366;2022-12-05T08:42:11;7.20;;;6.50;;
6529;SDS011;3298;42.688;23.366;2022-12-05T08:44:38;7.37;;;6.13;;
6529;SDS011;3298;42.688;23.366;2022-12-05T08:47:04;10.53;;;7.90;;
6529;SDS011;3298;42.688;23.366;2022-12-05T08:49:31;10.17;;;7.63;;
6529;SDS011;3298;42.688;23.366;2022-12-05T08:51:58;7.70;;;6.90;;
6529;SDS011;3298;42.688;23.366;2022-12-05T08:54:25;11.33;;;8.40;;
6529;SDS011;3298;42.688;23.366;2022-12-05T08:56:52;12.23;;;8.03;;
6529;SDS011;3298;42.688;23.366;2022-12-05T08:59:21;9.17;;;7.30;;
6529;SDS011;3298;42.688;23.366;2022-12-05T09:01:48;5.30;;;4.80;;
6529;SDS011;3298;42.688;23.366;2022-12-05T09:04:15;5.97;;;4.83;;
6529;SDS011;3298;42.688;23.366;2022-12-05T09:06:42;8.37;;;5.40;;
6529;SDS011;3298;42.688;23.366;2022-12-05T09:09:09;5.20;;;4.80;;
6529;SDS011;3298;42.688;23.366;2022-12-05T09:11:38;10.10;;;7.70;;
6529;SDS011;3298;42.688;23.366;2022-12-05T09:14:10;6.97;;;6.38;;
6529;SDS011;3298;42.688;23.366;2022-12-05T09:16:39;6.07;;;5.47;;
6529;SDS011;3298;42.688;23.366;2022-12-05T09:19:10;5.10;;;4.67;;
6529;SDS011;3298;42.688;23.366;2022-12-05T09:21:38;7.43;;;6.73;;
6529;SDS011;3298;42.688;23.366;2022-12-05T09:24:06;4.90;;;4.37;;
6529;SDS011;3298;42.688;23.366;2022-12-05T09:26:32;5.37;;;4.87;;
6529;SDS011;3298;42.688;23.366;2022-12-05T09:29:00;5.33;;;4.80;;
6529;SDS011;3298;42.688;23.366;2022-12-05T09:31:27;5.37;;;4.87;;
6529;SDS011;3298;42.688;23.366;2022-12-05T09:33:56;4.40;;;4.03;;
6529;SDS011;3298;42.688;23.366;2022-12-05T09:36:23;5.53;;;5.03;;
6529;SDS011;3298;42.688;23.366;2022-12-05T09:38:51;6.07;;;5.43;;
6529;SDS011;3298;42.688;23.366;2022-12-05T09:41:26;5.93;;;5.07;;
6529;SDS011;3298;42.688;23.366;2022-12-05T09:44:37;4.53;;;4.13;;
6529;SDS011;3298;42.688;23.366;2022-12-05T09:47:13;3.50;;;3.20;;
6529;SDS011;3298;42.688;23.366;2022-12-05T09:49:52;4.17;;;3.87;;
6529;SDS011;3298;42.688;23.366;2022-12-05T09:52:23;4.43;;;4.13;;
6529;SDS011;3298;42.688;23.366;2022-12-05T09:54:53;3.30;;;3.10;;
6529;SDS011;3298;42.688;23.366;2022-12-05T09:57:23;6.23;;;5.63;;
6529;SDS011;3298;42.688;23.366;2022-12-05T09:59:57;7.70;;;5.23;;
6529;SDS011;3298;42.688;23.366;2022-12-05T10:02:29;5.10;;;4.60;;
6529;SDS011;3298;42.688;23.366;2022-12-05T10:05:07;4.70;;;4.20;;
6529;SDS011;3298;42.688;23.366;2022-12-05T10:07:41;3.23;;;3.03;;
6529;SDS011;3298;42.688;23.366;2022-12-05T10:10:21;4.20;;;3.90;;
6529;SDS011;3298;42.688;23.366;2022-12-05T10:13:04;10.57;;;5.77;;
6529;SDS011;3298;42.688;23.366;2022-12-05T10:15:41;5.10;;;4.70;;
6529;SDS011;3298;42.688;23.366;2022-12-05T10:18:17;5.57;;;5.13;;
6529;SDS011;3298;42.688;23.366;2022-12-05T10:20:55;13.03;;;7.13;;
6529;SDS011;3298;42.688;23.366;2022-12-05T10:23:26;7.63;;;5.80;;
6529;SDS011;3298;42.688;23.366;2022-12-05T10:25:57;5.57;;;5.03;;
6529;SDS011;3298;42.688;23.366;2022-12-05T10:28:28;5.33;;;4.77;;
6529;SDS011;3298;42.688;23.366;2022-12-05T10:31:00;4.40;;;4.10;;
6529;SDS011;3298;42.688;23.366;2022-12-05T10:33:36;6.90;;;4.07;;
6529;SDS011;3298;42.688;23.366;2022-12-05T10:36:10;6.97;;;4.70;;
6529;SDS011;3298;42.688;23.366;2022-12-05T10:38:38;4.00;;;3.77;;
6529;SDS011;3298;42.688;23.366;2022-12-05T10:41:08;5.07;;;4.67;;
6529;SDS011;3298;42.688;23.366;2022-12-05T10:43:38;5.93;;;5.33;;
6529;SDS011;3298;42.688;23.366;2022-12-05T10:46:07;5.27;;;4.87;;
6529;SDS011;3298;42.688;23.366;2022-12-05T10:48:36;4.03;;;3.73;;
6529;SDS011;3298;42.688;23.366;2022-12-05T10:51:05;6.93;;;4.63;;
6529;SDS011;3298;42.688;23.366;2022-12-05T10:53:37;5.80;;;5.30;;
6529;SDS011;3298;42.688;23.366;2022-12-05T10:59:03;8.53;;;6.70;;
6529;SDS011;3298;42.688;23.366;2022-12-05T11:01:31;6.00;;;5.50;;
6529;SDS011;3298;42.688;23.366;2022-12-05T11:03:59;6.10;;;5.53;;
6529;SDS011;3298;42.688;23.366;2022-12-05T11:06:29;8.30;;;6.90;;
6529;SDS011;3298;42.688;23.366;2022-12-05T11:08:58;7.17;;;6.13;;
6529;SDS011;3298;42.688;23.366;2022-12-05T11:11:31;8.07;;;6.03;;
6529;SDS011;3298;42.688;23.366;2022-12-05T11:13:59;8.47;;;7.53;;
6529;SDS011;3298;42.688;23.366;2022-12-05T11:16:28;7.50;;;6.67;;
6529;SDS011;3298;42.688;23.366;2022-12-05T11:19:03;6.13;;;5.07;;
6529;SDS011;3298;42.688;23.366;2022-12-05T11:21:44;7.57;;;5.70;;
6529;SDS011;3298;42.688;23.366;2022-12-05T11:24:20;10.73;;;7.23;;
6529;SDS011;3298;42.688;23.366;2022-12-05T11:26:55;8.13;;;6.07;;
6529;SDS011;3298;42.688;23.366;2022-12-05T11:29:30;6.77;;;4.77;;
6529;SDS011;3298;42.688;23.366;2022-12-05T11:31:58;5.67;;;5.17;;
6529;SDS011;3298;42.688;23.366;2022-12-05T11:34:26;9.23;;;7.23;;
6529;SDS011;3298;42.688;23.366;2022-12-05T11:37:00;14.37;;;7.83;;
6529;SDS011;3298;42.688;23.366;2022-12-05T11:39:33;12.37;;;7.40;;
6529;SDS011;3298;42.688;23.366;2022-12-05T11:42:20;9.77;;;7.30;;
6529;SDS011;3298;42.688;23.366;2022-12-05T11:45:15;8.87;;;6.73;;
6529;SDS011;3298;42.688;23.366;2022-12-05T11:48:02;8.77;;;6.80;;
6529;SDS011;3298;42.688;23.366;2022-12-05T11:50:46;7.93;;;6.83;;
6529;SDS011;3298;42.688;23.366;2022-12-05T11:56:33;6.27;;;5.60;;
6529;SDS011;3298;42.688;23.366;2022-12-05T12:02:03;8.50;;;5.70;;
6529;SDS011;3298;42.688;23.366;2022-12-05T12:04:46;8.23;;;6.27;;
6529;SDS011;3298;42.688;23.366;2022-12-05T12:07:21;9.03;;;6.67;;
6529;SDS011;3298;42.688;23.366;2022-12-05T12:09:57;16.63;;;8.67;;
6529;SDS011;3298;42.688;23.366;2022-12-05T12:12:38;10.47;;;8.07;;
6529;SDS011;3298;42.688;23.366;2022-12-05T12:15:21;7.53;;;6.40;;
6529;SDS011;3298;42.688;23.366;2022-12-05T12:18:01;12.50;;;7.83;;
6529;SDS011;3298;42.688;23.366;2022-12-05T12:20:40;11.93;;;7.57;;
6529;SDS011;3298;42.688;23.366;2022-12-05T12:23:22;18.93;;;9.93;;
6529;SDS011;3298;42.688;23.366;2022-12-05T12:26:07;12.70;;;9.47;;
6529;SDS011;3298;42.688;23.366;2022-12-05T12:28:40;11.67;;;6.27;;
6529;SDS011;3298;42.688;23.366;2022-12-05T12:31:18;14.03;;;8.53;;
6529;SDS011;3298;42.688;23.366;2022-12-05T12:33:56;9.87;;;8.27;;
6529;SDS011;3298;42.688;23.366;2022-12-05T12:36:31;10.27;;;8.80;;
6529;SDS011;3298;42.688;23.366;2022-12-05T12:42:05;10.90;;;9.80;;
6529;SDS011;3298;42.688;23.366;2022-12-05T12:44:55;11.40;;;8.93;;
6529;SDS011;3298;42.688;23.366;2022-12-05T12:47:35;6.87;;;6.07;;
6529;SDS011;3298;42.688;23.366;2022-12-05T12:50:13;11.53;;;8.40;;
6529;SDS011;3298;42.688;23.366;2022-12-05T12:52:48;10.80;;;8.37;;
6529;SDS011;3298;42.688;23.366;2022-12-05T12:55:29;10.77;;;8.10;;
6529;SDS011;3298;42.688;23.366;2022-12-05T12:58:07;10.83;;;8.43;;
6529;SDS011;3298;42.688;23.366;2022-12-05T13:00:44;11.43;;;7.73;;
6529;SDS011;3298;42.688;23.366;2022-12-05T13:03:19;8.20;;;7.40;;
6529;SDS011;3298;42.688;23.366;2022-12-05T13:05:50;11.40;;;7.50;;
6529;SDS011;3298;42.688;23.366;2022-12-05T13:08:25;13.83;;;10.23;;
6529;SDS011;3298;42.688;23.366;2022-12-05T13:10:57;11.20;;;9.73;;
6529;SDS011;3298;42.688;23.366;2022-12-05T13:13:26;12.87;;;9.97;;
6529;SDS011;3298;42.688;23.366;2022-12-05T13:16:02;16.77;;;10.33;;
6529;SDS011;3298;42.688;23.366;2022-12-05T13:18:31;14.43;;;9.90;;
6529;SDS011;3298;42.688;23.366;2022-12-05T13:20:59;17.80;;;10.73;;
6529;SDS011;3298;42.688;23.366;2022-12-05T13:23:31;16.33;;;9.53;;
6529;SDS011;3298;42.688;23.366;2022-12-05T13:26:06;16.97;;;9.63;;
6529;SDS011;3298;42.688;23.366;2022-12-05T13:28:35;23.20;;;11.37;;
6529;SDS011;3298;42.688;23.366;2022-12-05T13:31:08;16.07;;;10.73;;
6529;SDS011;3298;42.688;23.366;2022-12-05T13:33:41;24.77;;;13.10;;
6529;SDS011;3298;42.688;23.366;2022-12-05T13:36:10;13.00;;;9.87;;
6529;SDS011;3298;42.688;23.366;2022-12-05T13:38:57;15.63;;;9.73;;
6529;SDS011;3298;42.688;23.366;2022-12-05T13:41:43;9.43;;;6.93;;
6529;SDS011;3298;42.688;23.366;2022-12-05T13:44:31;11.40;;;7.90;;
6529;SDS011;3298;42.688;23.366;2022-12-05T13:47:03;10.37;;;8.50;;
6529;SDS011;3298;42.688;23.366;2022-12-05T13:49:35;12.20;;;8.57;;
6529;SDS011;3298;42.688;23.366;2022-12-05T13:52:10;8.40;;;7.57;;
6529;SDS011;3298;42.688;23.366;2022-12-05T13:54:42;11.60;;;8.10;;
6529;SDS011;3298;42.688;23.366;2022-12-05T14:00:27;10.17;;;7.83;;
6529;SDS011;3298;42.688;23.366;2022-12-05T14:02:58;11.00;;;8.93;;
6529;SDS011;3298;42.688;23.366;2022-12-05T14:05:39;20.53;;;13.80;;
6529;SDS011;3298;42.688;23.366;2022-12-05T14:11:28;18.20;;;13.37;;
6529;SDS011;3298;42.688;23.366;2022-12-05T14:13:55;25.03;;;15.03;;
6529;SDS011;3298;42.688;23.366;2022-12-05T14:19:29;23.43;;;13.37;;
6529;SDS011;3298;42.688;23.366;2022-12-05T14:22:30;19.37;;;11.97;;
6529;SDS011;3298;42.688;23.366;2022-12-05T14:25:22;17.23;;;9.97;;
6529;SDS011;3298;42.688;23.366;2022-12-05T14:27:59;14.10;;;9.57;;
6529;SDS011;3298;42.688;23.366;2022-12-05T14:30:41;19.80;;;10.23;;
6529;SDS011;3298;42.688;23.366;2022-12-05T14:33:16;14.20;;;9.87;;
6529;SDS011;3298;42.688;23.366;2022-12-05T14:35:49;16.13;;;9.73;;
6529;SDS011;3298;42.688;23.366;2022-12-05T14:38:19;18.53;;;11.10;;
6529;SDS011;3298;42.688;23.366;2022-12-05T14:40:51;18.97;;;11.10;;
6529;SDS011;3298;42.688;23.366;2022-12-05T14:43:19;17.40;;;11.93;;
6529;SDS011;3298;42.688;23.366;2022-12-05T14:45:55;19.40;;;11.23;;
6529;SDS011;3298;42.688;23.366;2022-12-05T14:48:26;20.70;;;12.07;;
6529;SDS011;3298;42.688;23.366;2022-12-05T14:50:58;21.60;;;11.70;;
6529;SDS011;3298;42.688;23.366;2022-12-05T14:53:36;20.53;;;12.73;;
6529;SDS011;3298;42.688;23.366;2022-12-05T14:56:12;21.47;;;13.57;;
6529;SDS011;3298;42.688;23.366;2022-12-05T14:58:43;18.40;;;11.37;;
6529;SDS011;3298;42.688;23.366;2022-12-05T15:01:15;19.07;;;10.87;;
6529;SDS011;3298;42.688;23.366;2022-12-05T15:03:54;19.43;;;12.13;;
6529;SDS011;3298;42.688;23.366;2022-12-05T15:06:34;17.80;;;11.33;;
6529;SDS011;3298;42.688;23.366;2022-12-05T15:09:26;16.23;;;11.50;;
6529;SDS011;3298;42.688;23.366;2022-12-05T15:11:59;21.87;;;12.33;;
6529;SDS011;3298;42.688;23.366;2022-12-05T15:14:29;24.07;;;13.67;;
6529;SDS011;3298;42.688;23.366;2022-12-05T15:17:02;15.63;;;9.53;;
6529;SDS011;3298;42.688;23.366;2022-12-05T15:19:32;15.90;;;11.63;;
6529;SDS011;3298;42.688;23.366;2022-12-05T15:22:10;24.13;;;13.63;;
6529;SDS011;3298;42.688;23.366;2022-12-05T15:24:40;21.60;;;13.23;;
6529;SDS011;3298;42.688;23.366;2022-12-05T15:27:08;23.97;;;12.37;;
6529;SDS011;3298;42.688;23.366;2022-12-05T15:29:37;24.93;;;14.97;;
6529;SDS011;3298;42.688;23.366;2022-12-05T15:32:12;28.93;;;12.90;;
6529;SDS011;3298;42.688;23.366;2022-12-05T15:34:43;22.73;;;13.33;;
6529;SDS011;3298;42.688;23.366;2022-12-05T15:37:15;18.07;;;12.27;;
6529;SDS011;3298;42.688;23.366;2022-12-05T15:39:49;21.57;;;12.27;;
6529;SDS011;3298;42.688;23.366;2022-12-05T15:42:17;23.60;;;14.13;;
6529;SDS011;3298;42.688;23.366;2022-12-05T15:44:44;22.20;;;14.37;;